sensor_id;sensor_type;location;lat;lon;timestamp;P1;durP1;ratioP1;P2;durP2;ratioP2
52590;SDS011;38483;42.620;25.394;2022-09-12T00:01:38;3.10;;;2.10;;
52590;SDS011;38483;42.620;25.394;2022-09-12T00:03:58;3.27;;;2.23;;
52590;SDS011;38483;42.620;25.394;2022-09-12T00:06:28;4.70;;;2.53;;
52590;SDS011;38483;42.620;25.394;2022-09-12T00:08:58;3.77;;;2.50;;
52590;SDS011;38483;42.620;25.394;2022-09-12T00:11:27;3.30;;;2.70;;
52590;SDS011;38483;42.620;25.394;2022-09-12T00:13:56;2.37;;;1.97;;
52590;SDS011;38483;42.620;25.394;2022-09-12T00:16:25;3.50;;;2.10;;
52590;SDS011;38483;42.620;25.394;2022-09-12T00:18:54;7.37;;;3.13;;
52590;SDS011;38483;42.620;25.394;2022-09-12T00:21:21;3.90;;;2.43;;
52590;SDS011;38483;42.620;25.394;2022-09-12T00:23:49;2.83;;;1.97;;
52590;SDS011;38483;42.620;25.394;2022-09-12T00:26:17;3.53;;;2.27;;
52590;SDS011;38483;42.620;25.394;2022-09-12T00:28:45;2.23;;;1.70;;
52590;SDS011;38483;42.620;25.394;2022-09-12T00:31:18;1.90;;;1.70;;
52590;SDS011;38483;42.620;25.394;2022-09-12T00:33:47;2.43;;;1.80;;
52590;SDS011;38483;42.620;25.394;2022-09-12T00:36:16;2.00;;;1.33;;
52590;SDS011;38483;42.620;25.394;2022-09-12T00:38:46;1.70;;;1.57;;
52590;SDS011;38483;42.620;25.394;2022-09-12T00:44:03;1.80;;;1.60;;
52590;SDS011;38483;42.620;25.394;2022-09-12T00:46:37;1.87;;;1.43;;
52590;SDS011;38483;42.620;25.394;2022-09-12T00:51:45;3.00;;;1.60;;
52590;SDS011;38483;42.620;25.394;2022-09-12T00:54:19;1.60;;;1.50;;
52590;SDS011;38483;42.620;25.394;2022-09-12T00:56:51;4.90;;;1.70;;
52590;SDS011;38483;42.620;25.394;2022-09-12T00:59:23;2.47;;;1.40;;
52590;SDS011;38483;42.620;25.394;2022-09-12T01:02:10;2.13;;;1.20;;
52590;SDS011;38483;42.620;25.394;2022-09-12T01:04:37;1.60;;;1.50;;
52590;SDS011;38483;42.620;25.394;2022-09-12T01:07:07;1.63;;;1.50;;
52590;SDS011;38483;42.620;25.394;2022-09-12T01:09:34;2.40;;;1.30;;
52590;SDS011;38483;42.620;25.394;2022-09-12T01:12:03;1.93;;;1.47;;
52590;SDS011;38483;42.620;25.394;2022-09-12T01:14:31;1.50;;;1.40;;
52590;SDS011;38483;42.620;25.394;2022-09-12T01:16:58;2.00;;;1.50;;
52590;SDS011;38483;42.620;25.394;2022-09-12T01:28:42;2.50;;;1.40;;
52590;SDS011;38483;42.620;25.394;2022-09-12T01:31:17;1.20;;;1.10;;
52590;SDS011;38483;42.620;25.394;2022-09-12T01:34:18;1.07;;;0.97;;
52590;SDS011;38483;42.620;25.394;2022-09-12T01:44:48;1.00;;;0.90;;
52590;SDS011;38483;42.620;25.394;2022-09-12T01:47:33;0.90;;;0.90;;
52590;SDS011;38483;42.620;25.394;2022-09-12T01:52:44;1.20;;;1.10;;
52590;SDS011;38483;42.620;25.394;2022-09-12T01:55:17;1.30;;;1.20;;
52590;SDS011;38483;42.620;25.394;2022-09-12T01:57:52;1.20;;;1.10;;
52590;SDS011;38483;42.620;25.394;2022-09-12T02:00:23;2.40;;;1.20;;
52590;SDS011;38483;42.620;25.394;2022-09-12T02:02:58;1.40;;;1.07;;
52590;SDS011;38483;42.620;25.394;2022-09-12T02:05:31;1.93;;;1.50;;
52590;SDS011;38483;42.620;25.394;2022-09-12T02:08:15;2.60;;;1.60;;
52590;SDS011;38483;42.620;25.394;2022-09-12T02:10:49;2.87;;;1.43;;
52590;SDS011;38483;42.620;25.394;2022-09-12T02:13:21;3.50;;;1.63;;
52590;SDS011;38483;42.620;25.394;2022-09-12T02:19:23;3.93;;;1.87;;
52590;SDS011;38483;42.620;25.394;2022-09-12T02:21:57;3.57;;;1.80;;
52590;SDS011;38483;42.620;25.394;2022-09-12T02:24:29;1.57;;;1.47;;
52590;SDS011;38483;42.620;25.394;2022-09-12T02:27:00;1.70;;;1.60;;
52590;SDS011;38483;42.620;25.394;2022-09-12T02:29:31;3.10;;;1.77;;
52590;SDS011;38483;42.620;25.394;2022-09-12T02:31:59;2.53;;;1.70;;
52590;SDS011;38483;42.620;25.394;2022-09-12T02:35:15;2.60;;;1.80;;
52590;SDS011;38483;42.620;25.394;2022-09-12T02:40:05;1.93;;;1.50;;
52590;SDS011;38483;42.620;25.394;2022-09-12T02:42:37;3.07;;;1.80;;
52590;SDS011;38483;42.620;25.394;2022-09-12T02:45:04;1.83;;;1.70;;
52590;SDS011;38483;42.620;25.394;2022-09-12T02:47:36;3.07;;;1.67;;
52590;SDS011;38483;42.620;25.394;2022-09-12T02:50:04;3.40;;;2.07;;
52590;SDS011;38483;42.620;25.394;2022-09-12T02:52:33;3.57;;;2.40;;
52590;SDS011;38483;42.620;25.394;2022-09-12T02:55:03;2.80;;;2.30;;
52590;SDS011;38483;42.620;25.394;2022-09-12T02:57:31;2.90;;;2.50;;
52590;SDS011;38483;42.620;25.394;2022-09-12T02:59:59;2.60;;;2.40;;
52590;SDS011;38483;42.620;25.394;2022-09-12T03:02:44;3.10;;;2.67;;
52590;SDS011;38483;42.620;25.394;2022-09-12T03:05:33;3.10;;;2.80;;
52590;SDS011;38483;42.620;25.394;2022-09-12T03:10:39;3.90;;;3.37;;
52590;SDS011;38483;42.620;25.394;2022-09-12T03:16:34;7.20;;;5.83;;
52590;SDS011;38483;42.620;25.394;2022-09-12T03:24:47;4.00;;;3.53;;
52590;SDS011;38483;42.620;25.394;2022-09-12T03:27:56;3.77;;;3.30;;
52590;SDS011;38483;42.620;25.394;2022-09-12T03:30:39;4.80;;;3.60;;
52590;SDS011;38483;42.620;25.394;2022-09-12T03:33:11;3.90;;;2.80;;
52590;SDS011;38483;42.620;25.394;2022-09-12T03:35:39;2.53;;;2.27;;
52590;SDS011;38483;42.620;25.394;2022-09-12T03:38:07;2.57;;;2.37;;
52590;SDS011;38483;42.620;25.394;2022-09-12T03:40:34;2.07;;;1.93;;
52590;SDS011;38483;42.620;25.394;2022-09-12T03:43:02;4.73;;;1.83;;
52590;SDS011;38483;42.620;25.394;2022-09-12T03:45:30;2.83;;;1.87;;
52590;SDS011;38483;42.620;25.394;2022-09-12T03:47:57;1.73;;;1.63;;
52590;SDS011;38483;42.620;25.394;2022-09-12T03:50:24;1.90;;;1.63;;
52590;SDS011;38483;42.620;25.394;2022-09-12T03:52:52;1.60;;;1.50;;
52590;SDS011;38483;42.620;25.394;2022-09-12T03:55:19;1.87;;;1.43;;
52590;SDS011;38483;42.620;25.394;2022-09-12T03:57:46;1.63;;;1.53;;
52590;SDS011;38483;42.620;25.394;2022-09-12T04:00:13;2.23;;;1.40;;
52590;SDS011;38483;42.620;25.394;2022-09-12T04:02:45;1.50;;;1.40;;
52590;SDS011;38483;42.620;25.394;2022-09-12T04:05:12;2.30;;;1.37;;
52590;SDS011;38483;42.620;25.394;2022-09-12T04:07:39;1.30;;;1.20;;
52590;SDS011;38483;42.620;25.394;2022-09-12T04:10:07;2.73;;;2.00;;
52590;SDS011;38483;42.620;25.394;2022-09-12T04:12:35;1.93;;;1.57;;
52590;SDS011;38483;42.620;25.394;2022-09-12T04:15:05;1.50;;;1.40;;
52590;SDS011;38483;42.620;25.394;2022-09-12T04:17:33;3.40;;;1.50;;
52590;SDS011;38483;42.620;25.394;2022-09-12T04:20:00;2.57;;;1.67;;
52590;SDS011;38483;42.620;25.394;2022-09-12T04:22:29;1.63;;;1.53;;
52590;SDS011;38483;42.620;25.394;2022-09-12T04:24:57;2.40;;;1.70;;
52590;SDS011;38483;42.620;25.394;2022-09-12T04:27:24;1.73;;;1.63;;
52590;SDS011;38483;42.620;25.394;2022-09-12T04:29:51;2.53;;;1.60;;
52590;SDS011;38483;42.620;25.394;2022-09-12T04:32:20;1.90;;;1.70;;
52590;SDS011;38483;42.620;25.394;2022-09-12T04:34:49;4.40;;;1.90;;
52590;SDS011;38483;42.620;25.394;2022-09-12T04:37:17;1.50;;;1.40;;
52590;SDS011;38483;42.620;25.394;2022-09-12T04:39:44;2.87;;;1.90;;
52590;SDS011;38483;42.620;25.394;2022-09-12T04:42:14;2.20;;;2.00;;
52590;SDS011;38483;42.620;25.394;2022-09-12T04:44:42;2.37;;;1.47;;
52590;SDS011;38483;42.620;25.394;2022-09-12T04:47:10;3.43;;;1.80;;
52590;SDS011;38483;42.620;25.394;2022-09-12T04:49:37;2.50;;;1.87;;
52590;SDS011;38483;42.620;25.394;2022-09-12T04:52:04;1.60;;;1.50;;
52590;SDS011;38483;42.620;25.394;2022-09-12T04:54:31;1.57;;;1.33;;
52590;SDS011;38483;42.620;25.394;2022-09-12T04:56:59;2.37;;;1.50;;
52590;SDS011;38483;42.620;25.394;2022-09-12T04:59:26;4.10;;;1.60;;
52590;SDS011;38483;42.620;25.394;2022-09-12T05:01:53;1.20;;;1.10;;
52590;SDS011;38483;42.620;25.394;2022-09-12T05:04:20;1.67;;;1.10;;
52590;SDS011;38483;42.620;25.394;2022-09-12T05:06:50;3.47;;;1.30;;
52590;SDS011;38483;42.620;25.394;2022-09-12T05:09:17;2.60;;;1.57;;
52590;SDS011;38483;42.620;25.394;2022-09-12T05:11:44;2.43;;;0.90;;
52590;SDS011;38483;42.620;25.394;2022-09-12T05:14:31;5.57;;;1.40;;
52590;SDS011;38483;42.620;25.394;2022-09-12T05:16:59;2.60;;;1.67;;
52590;SDS011;38483;42.620;25.394;2022-09-12T05:19:27;2.20;;;1.50;;
52590;SDS011;38483;42.620;25.394;2022-09-12T05:21:56;6.70;;;1.80;;
52590;SDS011;38483;42.620;25.394;2022-09-12T05:24:23;3.00;;;1.63;;
52590;SDS011;38483;42.620;25.394;2022-09-12T05:26:50;6.07;;;1.57;;
52590;SDS011;38483;42.620;25.394;2022-09-12T05:29:17;4.17;;;1.60;;
52590;SDS011;38483;42.620;25.394;2022-09-12T05:31:45;4.27;;;1.20;;
52590;SDS011;38483;42.620;25.394;2022-09-12T05:34:18;9.63;;;1.73;;
52590;SDS011;38483;42.620;25.394;2022-09-12T05:36:46;2.90;;;1.20;;
52590;SDS011;38483;42.620;25.394;2022-09-12T05:39:13;2.73;;;1.33;;
52590;SDS011;38483;42.620;25.394;2022-09-12T05:41:40;5.93;;;1.83;;
52590;SDS011;38483;42.620;25.394;2022-09-12T05:44:10;3.33;;;1.30;;
52590;SDS011;38483;42.620;25.394;2022-09-12T05:46:39;4.90;;;1.50;;
52590;SDS011;38483;42.620;25.394;2022-09-12T05:49:12;4.03;;;3.07;;
52590;SDS011;38483;42.620;25.394;2022-09-12T05:51:41;2.60;;;0.90;;
52590;SDS011;38483;42.620;25.394;2022-09-12T05:54:11;6.60;;;1.33;;
52590;SDS011;38483;42.620;25.394;2022-09-12T05:56:41;1.30;;;0.90;;
52590;SDS011;38483;42.620;25.394;2022-09-12T05:59:10;3.90;;;0.90;;
52590;SDS011;38483;42.620;25.394;2022-09-12T06:01:40;1.77;;;0.73;;
52590;SDS011;38483;42.620;25.394;2022-09-12T06:04:08;1.03;;;1.00;;
52590;SDS011;38483;42.620;25.394;2022-09-12T06:06:41;2.37;;;0.87;;
52590;SDS011;38483;42.620;25.394;2022-09-12T06:09:13;1.10;;;0.90;;
52590;SDS011;38483;42.620;25.394;2022-09-12T06:11:41;1.00;;;0.90;;
52590;SDS011;38483;42.620;25.394;2022-09-12T06:14:10;3.13;;;2.17;;
52590;SDS011;38483;42.620;25.394;2022-09-12T06:16:39;2.33;;;0.90;;
52590;SDS011;38483;42.620;25.394;2022-09-12T06:19:07;1.67;;;0.90;;
52590;SDS011;38483;42.620;25.394;2022-09-12T06:21:42;2.37;;;1.07;;
52590;SDS011;38483;42.620;25.394;2022-09-12T06:24:09;1.57;;;0.87;;
52590;SDS011;38483;42.620;25.394;2022-09-12T06:26:36;5.63;;;1.20;;
52590;SDS011;38483;42.620;25.394;2022-09-12T06:29:04;1.90;;;1.00;;
52590;SDS011;38483;42.620;25.394;2022-09-12T06:31:32;1.13;;;1.00;;
52590;SDS011;38483;42.620;25.394;2022-09-12T06:34:02;1.10;;;0.90;;
52590;SDS011;38483;42.620;25.394;2022-09-12T06:36:32;4.63;;;1.10;;
52590;SDS011;38483;42.620;25.394;2022-09-12T06:39:04;1.23;;;0.77;;
52590;SDS011;38483;42.620;25.394;2022-09-12T06:41:43;0.80;;;0.80;;
52590;SDS011;38483;42.620;25.394;2022-09-12T06:44:12;1.10;;;1.00;;
52590;SDS011;38483;42.620;25.394;2022-09-12T06:46:41;1.87;;;1.00;;
52590;SDS011;38483;42.620;25.394;2022-09-12T06:49:10;5.87;;;2.10;;
52590;SDS011;38483;42.620;25.394;2022-09-12T06:51:38;1.30;;;0.90;;
52590;SDS011;38483;42.620;25.394;2022-09-12T06:54:07;2.47;;;0.73;;
52590;SDS011;38483;42.620;25.394;2022-09-12T06:56:37;2.40;;;0.90;;
52590;SDS011;38483;42.620;25.394;2022-09-12T06:59:04;2.30;;;0.90;;
52590;SDS011;38483;42.620;25.394;2022-09-12T07:01:34;2.33;;;1.13;;
52590;SDS011;38483;42.620;25.394;2022-09-12T07:04:02;4.50;;;1.13;;
52590;SDS011;38483;42.620;25.394;2022-09-12T07:06:34;1.20;;;0.97;;
52590;SDS011;38483;42.620;25.394;2022-09-12T07:09:04;2.10;;;0.97;;
52590;SDS011;38483;42.620;25.394;2022-09-12T07:11:34;1.07;;;0.80;;
52590;SDS011;38483;42.620;25.394;2022-09-12T07:14:03;1.20;;;0.80;;
52590;SDS011;38483;42.620;25.394;2022-09-12T07:16:33;1.90;;;1.20;;
52590;SDS011;38483;42.620;25.394;2022-09-12T07:19:02;0.67;;;0.67;;
52590;SDS011;38483;42.620;25.394;2022-09-12T07:21:30;1.43;;;0.77;;
52590;SDS011;38483;42.620;25.394;2022-09-12T07:23:58;3.50;;;0.80;;
52590;SDS011;38483;42.620;25.394;2022-09-12T07:26:26;0.63;;;0.63;;
52590;SDS011;38483;42.620;25.394;2022-09-12T07:28:55;1.70;;;0.80;;
52590;SDS011;38483;42.620;25.394;2022-09-12T07:31:43;3.40;;;1.20;;
52590;SDS011;38483;42.620;25.394;2022-09-12T07:34:12;3.27;;;0.80;;
52590;SDS011;38483;42.620;25.394;2022-09-12T07:36:40;0.97;;;0.73;;
52590;SDS011;38483;42.620;25.394;2022-09-12T07:39:07;0.80;;;0.80;;
52590;SDS011;38483;42.620;25.394;2022-09-12T07:41:35;0.90;;;0.80;;
52590;SDS011;38483;42.620;25.394;2022-09-12T07:44:05;3.17;;;1.17;;
52590;SDS011;38483;42.620;25.394;2022-09-12T07:46:33;2.60;;;0.80;;
52590;SDS011;38483;42.620;25.394;2022-09-12T07:49:00;1.17;;;0.73;;
52590;SDS011;38483;42.620;25.394;2022-09-12T07:51:29;0.70;;;0.70;;
52590;SDS011;38483;42.620;25.394;2022-09-12T07:53:57;0.70;;;0.70;;
52590;SDS011;38483;42.620;25.394;2022-09-12T07:56:25;0.60;;;0.60;;
52590;SDS011;38483;42.620;25.394;2022-09-12T07:58:57;1.03;;;0.70;;
52590;SDS011;38483;42.620;25.394;2022-09-12T08:01:25;1.33;;;0.80;;
52590;SDS011;38483;42.620;25.394;2022-09-12T08:03:54;1.73;;;1.10;;
52590;SDS011;38483;42.620;25.394;2022-09-12T08:06:26;1.70;;;0.80;;
52590;SDS011;38483;42.620;25.394;2022-09-12T08:08:58;1.20;;;1.10;;
52590;SDS011;38483;42.620;25.394;2022-09-12T08:11:25;1.50;;;0.77;;
52590;SDS011;38483;42.620;25.394;2022-09-12T08:13:54;1.90;;;0.70;;
52590;SDS011;38483;42.620;25.394;2022-09-12T08:16:24;1.20;;;1.10;;
52590;SDS011;38483;42.620;25.394;2022-09-12T08:18:54;1.63;;;0.70;;
52590;SDS011;38483;42.620;25.394;2022-09-12T08:21:22;1.63;;;0.70;;
52590;SDS011;38483;42.620;25.394;2022-09-12T08:24:09;0.60;;;0.60;;
52590;SDS011;38483;42.620;25.394;2022-09-12T08:26:38;1.10;;;0.90;;
52590;SDS011;38483;42.620;25.394;2022-09-12T08:29:05;0.63;;;0.60;;
52590;SDS011;38483;42.620;25.394;2022-09-12T08:31:33;3.30;;;1.20;;
52590;SDS011;38483;42.620;25.394;2022-09-12T08:34:05;1.30;;;1.00;;
52590;SDS011;38483;42.620;25.394;2022-09-12T08:36:34;1.30;;;0.93;;
52590;SDS011;38483;42.620;25.394;2022-09-12T08:39:04;0.70;;;0.70;;
52590;SDS011;38483;42.620;25.394;2022-09-12T08:41:40;0.63;;;0.60;;
52590;SDS011;38483;42.620;25.394;2022-09-12T08:44:12;1.33;;;0.60;;
52590;SDS011;38483;42.620;25.394;2022-09-12T08:52:35;1.13;;;1.00;;
52590;SDS011;38483;42.620;25.394;2022-09-12T08:57:47;0.87;;;0.70;;
52590;SDS011;38483;42.620;25.394;2022-09-12T09:00:14;1.33;;;1.00;;
52590;SDS011;38483;42.620;25.394;2022-09-12T09:05:28;3.13;;;1.17;;
52590;SDS011;38483;42.620;25.394;2022-09-12T09:08:10;1.47;;;0.70;;
52590;SDS011;38483;42.620;25.394;2022-09-12T09:16:47;2.07;;;0.73;;
52590;SDS011;38483;42.620;25.394;2022-09-12T09:19:31;0.60;;;0.60;;
52590;SDS011;38483;42.620;25.394;2022-09-12T09:22:04;0.63;;;0.60;;
52590;SDS011;38483;42.620;25.394;2022-09-12T09:24:40;0.80;;;0.80;;
52590;SDS011;38483;42.620;25.394;2022-09-12T09:30:15;0.60;;;0.60;;
52590;SDS011;38483;42.620;25.394;2022-09-12T09:32:46;1.43;;;0.83;;
52590;SDS011;38483;42.620;25.394;2022-09-12T09:35:16;0.73;;;0.73;;
52590;SDS011;38483;42.620;25.394;2022-09-12T09:37:52;2.07;;;0.80;;
52590;SDS011;38483;42.620;25.394;2022-09-12T09:40:55;0.73;;;0.70;;
52590;SDS011;38483;42.620;25.394;2022-09-12T09:43:26;0.70;;;0.70;;
52590;SDS011;38483;42.620;25.394;2022-09-12T09:45:55;2.20;;;0.80;;
52590;SDS011;38483;42.620;25.394;2022-09-12T09:48:30;1.10;;;1.10;;
52590;SDS011;38483;42.620;25.394;2022-09-12T09:51:01;1.20;;;1.10;;
52590;SDS011;38483;42.620;25.394;2022-09-12T09:58:53;1.47;;;1.00;;
52590;SDS011;38483;42.620;25.394;2022-09-12T10:01:20;1.10;;;1.00;;
52590;SDS011;38483;42.620;25.394;2022-09-12T10:03:51;1.43;;;0.90;;
52590;SDS011;38483;42.620;25.394;2022-09-12T10:11:40;3.03;;;1.10;;
52590;SDS011;38483;42.620;25.394;2022-09-12T10:17:24;0.80;;;0.80;;
52590;SDS011;38483;42.620;25.394;2022-09-12T10:20:00;1.00;;;1.00;;
52590;SDS011;38483;42.620;25.394;2022-09-12T10:22:47;1.77;;;0.97;;
52590;SDS011;38483;42.620;25.394;2022-09-12T10:25:15;1.60;;;0.97;;
52590;SDS011;38483;42.620;25.394;2022-09-12T10:27:51;0.90;;;0.90;;
52590;SDS011;38483;42.620;25.394;2022-09-12T10:30:21;1.27;;;1.00;;
52590;SDS011;38483;42.620;25.394;2022-09-12T10:33:02;1.00;;;1.00;;
52590;SDS011;38483;42.620;25.394;2022-09-12T10:35:44;1.07;;;0.97;;
52590;SDS011;38483;42.620;25.394;2022-09-12T10:38:21;2.77;;;0.73;;
52590;SDS011;38483;42.620;25.394;2022-09-12T10:41:09;0.80;;;0.80;;
52590;SDS011;38483;42.620;25.394;2022-09-12T10:43:39;1.57;;;1.10;;
52590;SDS011;38483;42.620;25.394;2022-09-12T10:48:47;0.90;;;0.90;;
52590;SDS011;38483;42.620;25.394;2022-09-12T10:53:56;1.03;;;0.93;;
52590;SDS011;38483;42.620;25.394;2022-09-12T11:02:36;0.80;;;0.80;;
52590;SDS011;38483;42.620;25.394;2022-09-12T11:16:57;2.17;;;0.97;;
52590;SDS011;38483;42.620;25.394;2022-09-12T11:19:44;1.40;;;0.93;;
52590;SDS011;38483;42.620;25.394;2022-09-12T11:22:40;1.07;;;0.90;;
52590;SDS011;38483;42.620;25.394;2022-09-12T11:25:38;1.63;;;1.20;;
52590;SDS011;38483;42.620;25.394;2022-09-12T11:28:37;3.30;;;1.17;;
52590;SDS011;38483;42.620;25.394;2022-09-12T11:34:08;6.27;;;1.50;;
52590;SDS011;38483;42.620;25.394;2022-09-12T11:39:14;1.00;;;1.00;;
52590;SDS011;38483;42.620;25.394;2022-09-12T11:41:50;1.87;;;1.20;;
52590;SDS011;38483;42.620;25.394;2022-09-12T11:44:32;2.00;;;1.27;;
52590;SDS011;38483;42.620;25.394;2022-09-12T11:47:12;1.40;;;1.30;;
52590;SDS011;38483;42.620;25.394;2022-09-12T11:49:41;1.50;;;1.33;;
52590;SDS011;38483;42.620;25.394;2022-09-12T11:52:19;1.73;;;1.30;;
52590;SDS011;38483;42.620;25.394;2022-09-12T11:57:30;1.10;;;1.10;;
52590;SDS011;38483;42.620;25.394;2022-09-12T12:00:05;1.37;;;1.13;;
52590;SDS011;38483;42.620;25.394;2022-09-12T12:05:33;1.40;;;1.30;;
52590;SDS011;38483;42.620;25.394;2022-09-12T12:08:08;1.30;;;1.20;;
52590;SDS011;38483;42.620;25.394;2022-09-12T12:10:38;2.20;;;1.03;;
52590;SDS011;38483;42.620;25.394;2022-09-12T12:15:53;1.30;;;1.20;;
52590;SDS011;38483;42.620;25.394;2022-09-12T12:18:29;1.30;;;1.20;;
52590;SDS011;38483;42.620;25.394;2022-09-12T12:26:41;1.40;;;1.30;;
52590;SDS011;38483;42.620;25.394;2022-09-12T12:40:26;1.50;;;1.40;;
52590;SDS011;38483;42.620;25.394;2022-09-12T12:48:01;2.27;;;1.63;;
52590;SDS011;38483;42.620;25.394;2022-09-12T12:50:35;2.23;;;2.03;;
52590;SDS011;38483;42.620;25.394;2022-09-12T12:53:03;2.07;;;1.37;;
52590;SDS011;38483;42.620;25.394;2022-09-12T12:55:55;1.97;;;1.80;;
52590;SDS011;38483;42.620;25.394;2022-09-12T12:58:37;2.00;;;1.80;;
52590;SDS011;38483;42.620;25.394;2022-09-12T13:01:12;2.20;;;2.00;;
52590;SDS011;38483;42.620;25.394;2022-09-12T13:03:44;3.53;;;2.13;;
52590;SDS011;38483;42.620;25.394;2022-09-12T13:06:30;3.07;;;2.07;;
52590;SDS011;38483;42.620;25.394;2022-09-12T13:12:27;3.30;;;2.40;;
52590;SDS011;38483;42.620;25.394;2022-09-12T13:15:00;2.40;;;2.20;;
52590;SDS011;38483;42.620;25.394;2022-09-12T13:17:34;2.20;;;2.00;;
52590;SDS011;38483;42.620;25.394;2022-09-12T13:20:07;3.30;;;2.50;;
52590;SDS011;38483;42.620;25.394;2022-09-12T13:22:54;2.60;;;2.20;;
52590;SDS011;38483;42.620;25.394;2022-09-12T13:30:43;2.33;;;2.13;;
52590;SDS011;38483;42.620;25.394;2022-09-12T13:33:42;3.40;;;2.20;;
52590;SDS011;38483;42.620;25.394;2022-09-12T13:43:07;2.67;;;2.37;;
52590;SDS011;38483;42.620;25.394;2022-09-12T13:45:58;2.83;;;2.30;;
52590;SDS011;38483;42.620;25.394;2022-09-12T13:48:25;2.77;;;2.40;;
52590;SDS011;38483;42.620;25.394;2022-09-12T13:50:58;3.57;;;2.40;;
52590;SDS011;38483;42.620;25.394;2022-09-12T13:53:29;3.50;;;2.73;;
52590;SDS011;38483;42.620;25.394;2022-09-12T13:56:48;3.73;;;2.60;;
52590;SDS011;38483;42.620;25.394;2022-09-12T14:00:16;3.67;;;2.67;;
52590;SDS011;38483;42.620;25.394;2022-09-12T14:07:06;3.20;;;2.57;;
52590;SDS011;38483;42.620;25.394;2022-09-12T14:10:30;3.20;;;2.77;;
52590;SDS011;38483;42.620;25.394;2022-09-12T14:13:21;3.40;;;2.87;;
52590;SDS011;38483;42.620;25.394;2022-09-12T14:15:52;2.63;;;2.43;;
52590;SDS011;38483;42.620;25.394;2022-09-12T14:18:24;3.17;;;2.97;;
52590;SDS011;38483;42.620;25.394;2022-09-12T14:20:54;6.77;;;3.13;;
52590;SDS011;38483;42.620;25.394;2022-09-12T14:23:27;2.70;;;2.50;;
52590;SDS011;38483;42.620;25.394;2022-09-12T14:25:56;3.53;;;3.23;;
52590;SDS011;38483;42.620;25.394;2022-09-12T14:28:32;3.63;;;3.33;;
52590;SDS011;38483;42.620;25.394;2022-09-12T14:31:02;3.27;;;2.97;;
52590;SDS011;38483;42.620;25.394;2022-09-12T14:33:51;3.90;;;3.60;;
52590;SDS011;38483;42.620;25.394;2022-09-12T14:39:00;7.83;;;3.90;;
52590;SDS011;38483;42.620;25.394;2022-09-12T14:41:36;5.47;;;3.90;;
52590;SDS011;38483;42.620;25.394;2022-09-12T14:44:07;8.13;;;3.30;;
52590;SDS011;38483;42.620;25.394;2022-09-12T14:46:42;3.80;;;3.50;;
52590;SDS011;38483;42.620;25.394;2022-09-12T14:56:55;4.40;;;4.00;;
52590;SDS011;38483;42.620;25.394;2022-09-12T14:59:38;3.90;;;3.60;;
52590;SDS011;38483;42.620;25.394;2022-09-12T15:04:50;3.93;;;3.60;;
52590;SDS011;38483;42.620;25.394;2022-09-12T15:07:42;4.17;;;3.67;;
52590;SDS011;38483;42.620;25.394;2022-09-12T15:13:08;4.23;;;3.40;;
52590;SDS011;38483;42.620;25.394;2022-09-12T15:15:46;4.83;;;4.03;;
52590;SDS011;38483;42.620;25.394;2022-09-12T15:18:18;4.30;;;3.90;;
52590;SDS011;38483;42.620;25.394;2022-09-12T15:20:46;6.00;;;4.73;;
52590;SDS011;38483;42.620;25.394;2022-09-12T15:26:03;6.70;;;4.50;;
52590;SDS011;38483;42.620;25.394;2022-09-12T15:28:34;9.60;;;5.40;;
52590;SDS011;38483;42.620;25.394;2022-09-12T15:31:07;4.13;;;3.77;;
52590;SDS011;38483;42.620;25.394;2022-09-12T15:33:57;5.17;;;4.03;;
52590;SDS011;38483;42.620;25.394;2022-09-12T15:36:25;4.20;;;3.60;;
52590;SDS011;38483;42.620;25.394;2022-09-12T15:38:54;4.87;;;4.33;;
52590;SDS011;38483;42.620;25.394;2022-09-12T15:44:00;4.60;;;4.20;;
52590;SDS011;38483;42.620;25.394;2022-09-12T15:46:30;4.27;;;3.87;;
52590;SDS011;38483;42.620;25.394;2022-09-12T15:48:57;4.57;;;3.47;;
52590;SDS011;38483;42.620;25.394;2022-09-12T15:51:24;4.87;;;3.50;;
52590;SDS011;38483;42.620;25.394;2022-09-12T15:53:51;4.47;;;4.07;;
52590;SDS011;38483;42.620;25.394;2022-09-12T15:56:19;4.80;;;4.33;;
52590;SDS011;38483;42.620;25.394;2022-09-12T15:58:47;4.87;;;4.13;;
52590;SDS011;38483;42.620;25.394;2022-09-12T16:01:30;8.13;;;5.10;;
52590;SDS011;38483;42.620;25.394;2022-09-12T16:03:57;4.70;;;4.17;;
52590;SDS011;38483;42.620;25.394;2022-09-12T16:06:24;4.17;;;3.87;;
52590;SDS011;38483;42.620;25.394;2022-09-12T16:08:52;5.90;;;5.30;;
52590;SDS011;38483;42.620;25.394;2022-09-12T16:11:20;6.53;;;4.43;;
52590;SDS011;38483;42.620;25.394;2022-09-12T16:13:52;7.10;;;4.37;;
52590;SDS011;38483;42.620;25.394;2022-09-12T16:16:19;5.40;;;4.90;;
52590;SDS011;38483;42.620;25.394;2022-09-12T16:18:46;5.80;;;4.70;;
52590;SDS011;38483;42.620;25.394;2022-09-12T16:21:14;4.53;;;4.13;;
52590;SDS011;38483;42.620;25.394;2022-09-12T16:23:42;5.37;;;4.87;;
52590;SDS011;38483;42.620;25.394;2022-09-12T16:26:10;5.10;;;4.50;;
52590;SDS011;38483;42.620;25.394;2022-09-12T16:28:37;6.73;;;4.77;;
52590;SDS011;38483;42.620;25.394;2022-09-12T16:31:11;5.83;;;5.23;;
52590;SDS011;38483;42.620;25.394;2022-09-12T16:33:42;5.50;;;5.00;;
52590;SDS011;38483;42.620;25.394;2022-09-12T16:36:10;5.13;;;4.50;;
52590;SDS011;38483;42.620;25.394;2022-09-12T16:38:40;4.77;;;4.30;;
52590;SDS011;38483;42.620;25.394;2022-09-12T16:41:07;5.13;;;4.17;;
52590;SDS011;38483;42.620;25.394;2022-09-12T16:43:35;5.27;;;4.07;;
52590;SDS011;38483;42.620;25.394;2022-09-12T16:46:04;5.93;;;4.30;;
52590;SDS011;38483;42.620;25.394;2022-09-12T16:48:33;7.83;;;4.37;;
52590;SDS011;38483;42.620;25.394;2022-09-12T16:51:01;5.13;;;4.43;;
52590;SDS011;38483;42.620;25.394;2022-09-12T16:53:33;4.40;;;4.00;;
52590;SDS011;38483;42.620;25.394;2022-09-12T16:56:03;4.33;;;3.93;;
52590;SDS011;38483;42.620;25.394;2022-09-12T16:58:35;4.97;;;4.10;;
52590;SDS011;38483;42.620;25.394;2022-09-12T17:01:08;5.07;;;4.57;;
52590;SDS011;38483;42.620;25.394;2022-09-12T17:03:40;5.43;;;4.70;;
52590;SDS011;38483;42.620;25.394;2022-09-12T17:06:09;7.63;;;4.60;;
52590;SDS011;38483;42.620;25.394;2022-09-12T17:08:38;5.17;;;4.33;;
52590;SDS011;38483;42.620;25.394;2022-09-12T17:11:16;4.10;;;3.80;;
52590;SDS011;38483;42.620;25.394;2022-09-12T17:13:51;5.33;;;4.50;;
52590;SDS011;38483;42.620;25.394;2022-09-12T17:16:34;5.10;;;4.67;;
52590;SDS011;38483;42.620;25.394;2022-09-12T17:19:04;4.40;;;3.90;;
52590;SDS011;38483;42.620;25.394;2022-09-12T17:21:32;4.40;;;4.10;;
52590;SDS011;38483;42.620;25.394;2022-09-12T17:24:01;6.17;;;3.73;;
52590;SDS011;38483;42.620;25.394;2022-09-12T17:26:30;5.30;;;4.10;;
52590;SDS011;38483;42.620;25.394;2022-09-12T17:28:57;4.23;;;3.83;;
52590;SDS011;38483;42.620;25.394;2022-09-12T17:31:24;6.67;;;4.90;;
52590;SDS011;38483;42.620;25.394;2022-09-12T17:33:58;4.10;;;3.80;;
52590;SDS011;38483;42.620;25.394;2022-09-12T17:36:27;4.83;;;4.03;;
52590;SDS011;38483;42.620;25.394;2022-09-12T17:38:54;4.23;;;3.83;;
52590;SDS011;38483;42.620;25.394;2022-09-12T17:41:22;3.73;;;3.43;;
52590;SDS011;38483;42.620;25.394;2022-09-12T17:43:57;5.53;;;4.40;;
52590;SDS011;38483;42.620;25.394;2022-09-12T17:47:32;6.43;;;4.30;;
52590;SDS011;38483;42.620;25.394;2022-09-12T17:49:59;5.30;;;4.27;;
52590;SDS011;38483;42.620;25.394;2022-09-12T17:52:46;7.43;;;4.00;;
52590;SDS011;38483;42.620;25.394;2022-09-12T17:55:16;3.73;;;3.43;;
52590;SDS011;38483;42.620;25.394;2022-09-12T17:57:43;4.73;;;3.67;;
52590;SDS011;38483;42.620;25.394;2022-09-12T18:00:10;3.40;;;3.10;;
52590;SDS011;38483;42.620;25.394;2022-09-12T18:02:38;4.13;;;3.57;;